Amy C. Mc Allister — WCZ9520 — position and weather

sailwx.info

Track history (hours):
 
Tides and Currents Weather Stations Pressure Air Temp Water Temp Dewpoint Dewpoint Depression Visibility Wind Speed Wind Dir Waves Ship Positions

Amy C. Mc Allister

Owner: MC ALLISTER TOWING & TRANSPORTATION INC, NEW YORK, NY. More information available from US FCC via Universal Licensing System and Coast Guard Vessel Documentation Center.

Last reported at 2017-Jan-20 19:33 UTC. Time now 2017-Jan-20 20:11 UTC.
Position N 38°53' W 074°47'.

Length 27 m; draft 4.9 m.

Type: Towing. MMSI: 366995040.

Date/timePositionNaut miles runAvg speedWind from/ knotsBaromVisibWave heightAir tempDewpointWater temp
2017-Jan-20 19:33N 38°53' W 074°47'13 5.9
2017-Jan-20 17:26N 38°50' W 075°02'6 6.4
2017-Jan-20 16:33N 38°55' W 075°05'7 6.8
2017-Jan-20 15:33N 39°01' W 075°09'7 7.3
2017-Jan-20 14:33N 39°07' W 075°13'8 7.8
2017-Jan-20 13:33N 39°14' W 075°19'8 8.0
2017-Jan-20 12:33N 39°20' W 075°25'7 6.9
2017-Jan-20 11:33N 39°25' W 075°31'5 5.4
2017-Jan-20 10:33N 39°30' W 075°33'5 4.9
2017-Jan-20 09:33N 39°35' W 075°34'4 3.8
2017-Jan-20 08:33N 39°39' W 075°33'4 4.3
2017-Jan-20 07:33N 39°43' W 075°30'5 5.2
2017-Jan-20 06:33N 39°47' W 075°27'5 4.8
2017-Jan-20 05:33N 39°50' W 075°22'0 0.3
2017-Jan-20 04:33N 39°50' W 075°22'0 0.0
2017-Jan-20 03:33N 39°50' W 075°22'0 0.0
2017-Jan-20 02:33N 39°50' W 075°22'8 8.1
2017-Jan-20 01:33N 39°53' W 075°12'1 0.9
2017-Jan-20 00:33N 39°52' W 075°13'6 6.4
2017-Jan-19 23:33N 39°51' W 075°21'5 4.6
2017-Jan-19 22:33N 39°48' W 075°26'8 7.9
2017-Jan-19 21:33N 39°41' W 075°31'8 8.3
2017-Jan-19 20:33N 39°33' W 075°33'9 8.9
2017-Jan-19 19:33N 39°24' W 075°30'1010.0
2017-Jan-19 18:33N 39°17' W 075°21'10 9.8
2017-Jan-19 17:33N 39°09' W 075°14'11 1.1
2017-Jan-19 07:32N 38°59' W 075°08'6 6.1
2017-Jan-19 06:33N 39°04' W 075°11'6 5.7
2017-Jan-19 05:33N 39°09' W 075°15'6 5.6
2017-Jan-19 04:33N 39°14' W 075°18'6 6.3
2017-Jan-19 03:33N 39°19' W 075°23'8 7.8
2017-Jan-19 02:33N 39°24' W 075°30'7 6.9
2017-Jan-19 01:33N 39°31' W 075°33'8 7.6
2017-Jan-19 00:33N 39°38' W 075°34'7 7.1
2017-Jan-18 23:33N 39°45' W 075°30'6 6.2
2017-Jan-18 22:33N 39°49' W 075°24'2 2.2
2017-Jan-18 21:33N 39°50' W 075°22'0 0.4
2017-Jan-18 20:34N 39°50' W 075°22'0 0.0
2017-Jan-18 19:33N 39°50' W 075°22'0 0.0
2017-Jan-18 18:33N 39°50' W 075°22'0 0.1
2017-Jan-18 17:33N 39°50' W 075°22'0 0.0
2017-Jan-18 16:33N 39°50' W 075°22'0 0.0
2017-Jan-18 15:33N 39°50' W 075°22'0 0.0
2017-Jan-18 14:33N 39°50' W 075°22'0 0.0
2017-Jan-18 13:33N 39°50' W 075°22'0 0.0
2017-Jan-18 12:33N 39°50' W 075°22'0 0.0
2017-Jan-18 11:33N 39°50' W 075°22'0 0.1
2017-Jan-18 10:33N 39°50' W 075°22'0 0.0
2017-Jan-18 09:33N 39°50' W 075°22'0 0.0
2017-Jan-18 08:34N 39°50' W 075°22'0 0.0
2017-Jan-18 07:33N 39°50' W 075°22'0 0.0
2017-Jan-18 06:33N 39°50' W 075°22'0 0.1
2017-Jan-18 05:33N 39°50' W 075°22'0 0.0
2017-Jan-18 04:33N 39°50' W 075°22'0 0.0
2017-Jan-18 03:33N 39°50' W 075°22'0 0.0
2017-Jan-18 02:33N 39°50' W 075°22'0 0.0
2017-Jan-18 01:33N 39°50' W 075°22'0 0.0
2017-Jan-18 00:33N 39°50' W 075°22'0 0.0
2017-Jan-17 23:33N 39°50' W 075°22'0 0.0
2017-Jan-17 22:33N 39°50' W 075°22'0 0.1
2017-Jan-17 21:33N 39°50' W 075°22'0 0.0
2017-Jan-17 20:33N 39°50' W 075°22'0 0.0
2017-Jan-17 19:33N 39°50' W 075°22'0 0.0
2017-Jan-17 18:33N 39°50' W 075°22'3 3.2
2017-Jan-17 17:33N 39°51' W 075°18'5 5.4
2017-Jan-17 16:33N 39°54' W 075°12'0 0.0
2017-Jan-17 15:33N 39°54' W 075°12'0 0.0
2017-Jan-17 14:33N 39°54' W 075°12'0 0.0
2017-Jan-17 13:33N 39°54' W 075°12'1 0.7
2017-Jan-17 12:33N 39°54' W 075°12'0 0.0
2017-Jan-17 11:33N 39°54' W 075°12'0 0.5
2017-Jan-17 10:33N 39°54' W 075°12'0 0.0
2017-Jan-17 09:33N 39°54' W 075°12'0 0.0
2017-Jan-17 08:33N 39°54' W 075°12'5 4.6
2017-Jan-17 07:33N 39°51' W 075°17'4 3.9
2017-Jan-17 06:33N 39°50' W 075°22'5 4.8
2017-Jan-17 05:33N 39°47' W 075°27'1010.1
2017-Jan-17 04:33N 39°39' W 075°33'10 9.8
2017-Jan-17 03:33N 39°29' W 075°34'9 8.8
2017-Jan-17 02:33N 39°22' W 075°27'8 8.4
2017-Jan-17 01:33N 39°15' W 075°20'9 8.5
2017-Jan-17 00:32N 39°08' W 075°14'8 8.5
2017-Jan-16 23:33N 39°01' W 075°09'9 8.5
2017-Jan-16 22:32N 38°53' W 075°04'8 6.9
2017-Jan-16 21:21N 38°49' W 074°55'8 8.6
2017-Jan-16 20:24N 38°54' W 074°47'6 6.8
2017-Jan-16 19:28N 38°58' W 074°41'6 6.4
2017-Jan-16 18:29N 38°53' W 074°46'8 7.5
2017-Jan-16 17:23N 38°49' W 074°55'11 5.8
2017-Jan-16 15:24N 38°56' W 075°06'5 5.9
2017-Jan-16 14:32N 39°01' W 075°09'6 6.1
2017-Jan-16 13:33N 39°06' W 075°12'7 7.2
2017-Jan-16 12:33N 39°12' W 075°17'9 9.4
2017-Jan-16 11:33N 39°19' W 075°25'9 9.3
2017-Jan-16 10:33N 39°26' W 075°33'8 8.1
2017-Jan-16 09:33N 39°35' W 075°33'7 6.6
2017-Jan-16 08:33N 39°41' W 075°31'6 6.1
2017-Jan-16 07:33N 39°47' W 075°28'5 5.3
2017-Jan-16 06:33N 39°50' W 075°22'1 0.6
2017-Jan-16 05:33N 39°50' W 075°22'0 0.0
2017-Jan-16 04:33N 39°50' W 075°22'0 0.1
2017-Jan-16 03:33N 39°50' W 075°22'0 0.0
2017-Jan-16 02:33N 39°50' W 075°22'0 0.0
2017-Jan-16 01:33N 39°50' W 075°22'0 0.0
2017-Jan-16 00:33N 39°50' W 075°22'0 0.0
2017-Jan-15 23:33N 39°50' W 075°22'0 0.0
2017-Jan-15 22:33N 39°50' W 075°22'0 0.0
2017-Jan-15 21:33N 39°50' W 075°22'0 0.1
2017-Jan-15 20:33N 39°50' W 075°22'0 0.0
2017-Jan-15 19:33N 39°50' W 075°22'0 0.0
2017-Jan-15 18:33N 39°50' W 075°22'0 0.0
2017-Jan-15 17:33N 39°50' W 075°22'0 0.0
2017-Jan-15 16:34N 39°50' W 075°22'0 0.0
2017-Jan-15 15:33N 39°50' W 075°22'0 0.1
2017-Jan-15 14:33N 39°50' W 075°22'0 0.0
2017-Jan-15 13:33N 39°50' W 075°22'0 0.0
2017-Jan-15 12:33N 39°50' W 075°22'0 0.0
2017-Jan-15 11:33N 39°50' W 075°22'1 0.7
2017-Jan-15 10:33N 39°50' W 075°21'2 2.0
2017-Jan-15 09:33N 39°49' W 075°23'0 0.0
2017-Jan-15 08:33N 39°49' W 075°23'0 0.0
2017-Jan-15 07:33N 39°49' W 075°23'0 0.0
2017-Jan-15 06:33N 39°49' W 075°23'1 1.4
2017-Jan-15 05:33N 39°50' W 075°22'0 0.0
2017-Jan-15 04:33N 39°50' W 075°22'0 0.0
2017-Jan-15 03:33N 39°50' W 075°22'3 2.8
2017-Jan-15 02:33N 39°48' W 075°25'7 7.3
2017-Jan-15 01:33N 39°43' W 075°31'7 6.9
2017-Jan-15 00:33N 39°36' W 075°34'7 6.6
2017-Jan-14 23:33N 39°30' W 075°33'6 5.9
2017-Jan-14 22:33N 39°24' W 075°30'6 6.4
2017-Jan-14 21:33N 39°20' W 075°25'7 6.6
2017-Jan-14 20:33N 39°15' W 075°19'7 7.1
2017-Jan-14 19:33N 39°09' W 075°14'7 7.3
2017-Jan-14 18:33N 39°02' W 075°10'21 5.2
2017-Jan-14 14:26N 38°58' W 074°43'20 3.3
2017-Jan-14 08:26N 38°60' W 075°08'7 8.1
2017-Jan-14 07:33N 39°06' W 075°12'8 8.1
2017-Jan-14 06:33N 39°13' W 075°18'7 7.1
2017-Jan-14 05:33N 39°18' W 075°23'6 5.9
2017-Jan-14 04:33N 39°23' W 075°28'5 5.3
2017-Jan-14 03:33N 39°27' W 075°33'22 5.4
2017-Jan-13 23:34N 39°48' W 075°26'4 4.2
2017-Jan-13 22:33N 39°50' W 075°22'2 1.7
2017-Jan-13 21:33N 39°49' W 075°23'0 0.2
2017-Jan-13 20:33N 39°49' W 075°23'2 1.9
2017-Jan-13 19:33N 39°48' W 075°25'8 8.1
2017-Jan-13 18:33N 39°41' W 075°31'9 8.6
2017-Jan-13 17:33N 39°33' W 075°33'9 9.0
2017-Jan-13 16:33N 39°24' W 075°30'1010.4
2017-Jan-13 15:33N 39°16' W 075°20'3110.2
2017-Jan-13 12:28N 38°49' W 075°01'9 9.0
2017-Jan-13 11:31N 38°50' W 074°50'10 7.3
2017-Jan-13 10:08N 38°58' W 074°42'24 4.9
2017-Jan-13 05:16N 39°05' W 075°11'6 8.6
2017-Jan-13 04:33N 39°10' W 075°16'7 7.3
2017-Jan-13 03:33N 39°16' W 075°21'6 5.9
2017-Jan-13 02:33N 39°21' W 075°26'6 5.5
2017-Jan-13 01:33N 39°25' W 075°31'6 6.1
2017-Jan-13 00:33N 39°31' W 075°33'8 7.5
2017-Jan-12 23:33N 39°38' W 075°34'8 7.9
2017-Jan-12 22:33N 39°45' W 075°29'6 6.2
2017-Jan-12 21:33N 39°49' W 075°23'5 4.7
2017-Jan-12 20:33N 39°51' W 075°18'5 5.3
2017-Jan-12 19:33N 39°54' W 075°12'0 0.0
2017-Jan-12 18:33N 39°54' W 075°12'0 0.0
2017-Jan-12 17:33N 39°54' W 075°12'0 0.0
2017-Jan-12 16:33N 39°54' W 075°12'0 0.0
2017-Jan-12 15:33N 39°54' W 075°12'0 0.0
2017-Jan-12 14:33N 39°54' W 075°12'0 0.0
2017-Jan-12 13:33N 39°54' W 075°12'0 0.0
2017-Jan-12 12:33N 39°54' W 075°12'0 0.0
2017-Jan-12 11:33N 39°54' W 075°12'0 0.0
2017-Jan-12 10:33N 39°54' W 075°12'0 0.0
2017-Jan-12 09:33N 39°54' W 075°12'0 0.0
2017-Jan-12 08:33N 39°54' W 075°12'0 0.0
2017-Jan-12 07:33N 39°54' W 075°12'0 0.0
2017-Jan-12 06:33N 39°54' W 075°12'0 0.1
2017-Jan-12 05:33N 39°54' W 075°12'1010.0
2017-Jan-12 04:34N 39°49' W 075°23'2 1.5
2017-Jan-12 03:33N 39°50' W 075°22'6 6.1
2017-Jan-12 02:33N 39°46' W 075°28'1010.4
2017-Jan-12 01:33N 39°37' W 075°35'1010.1
2017-Jan-12 00:33N 39°27' W 075°33'10 9.9
2017-Jan-11 23:33N 39°20' W 075°25'9 8.7
2017-Jan-11 22:33N 39°13' W 075°18'10 9.6
2017-Jan-11 21:33N 39°05' W 075°11'10 9.5
2017-Jan-11 20:33N 38°56' W 075°06'15 6.2
2017-Jan-11 18:04N 38°54' W 074°47'5 7.3
2017-Jan-11 17:21N 38°58' W 074°42'6 5.5
2017-Jan-11 16:18N 38°53' W 074°46'22 5.3
2017-Jan-11 12:05N 39°04' W 075°11'3 5.9
2017-Jan-11 11:33N 39°07' W 075°13'6 5.6
2017-Jan-11 10:33N 39°11' W 075°17'6 6.3
2017-Jan-11 09:33N 39°17' W 075°21'8 8.0
2017-Jan-11 08:33N 39°23' W 075°28'8 8.5
2017-Jan-11 07:33N 39°30' W 075°33'8 8.1
2017-Jan-11 06:33N 39°38' W 075°34'8 7.6
2017-Jan-11 05:33N 39°45' W 075°30'6 5.7
2017-Jan-11 04:33N 39°49' W 075°24'2 1.5
2017-Jan-11 03:33N 39°50' W 075°23'0 0.2
2017-Jan-11 02:33N 39°49' W 075°23'7 6.7
2017-Jan-11 01:33N 39°45' W 075°29'9 9.2
2017-Jan-11 00:33N 39°37' W 075°35'9 9.1
2017-Jan-10 23:33N 39°28' W 075°34'9 9.3
2017-Jan-10 22:33N 39°21' W 075°26'10 9.5
2017-Jan-10 21:33N 39°13' W 075°18'10 9.5
2017-Jan-10 20:30N 39°05' W 075°11'  
Track history (hours):
 
Tides and Currents Weather Stations Pressure Air Temp Water Temp Dewpoint Dewpoint Depression Visibility Wind Speed Wind Dir Waves Ship Positions

Amy C. Mc Allister

Owner: MC ALLISTER TOWING & TRANSPORTATION INC, NEW YORK, NY. More information available from US FCC via Universal Licensing System and Coast Guard Vessel Documentation Center.

Last reported at 2017-Jan-20 19:33 UTC. Time now 2017-Jan-20 20:11 UTC.
Position N 38°53' W 074°47'.

Length 27 m; draft 4.9 m.

Type: Towing. MMSI: 366995040.

Date/timePositionNaut miles runAvg speedWind from/ knotsBaromVisibWave heightAir tempDewpointWater temp
2017-Jan-20 19:33N 38°53' W 074°47'13 5.9
2017-Jan-20 17:26N 38°50' W 075°02'6 6.4
2017-Jan-20 16:33N 38°55' W 075°05'7 6.8
2017-Jan-20 15:33N 39°01' W 075°09'7 7.3
2017-Jan-20 14:33N 39°07' W 075°13'8 7.8
2017-Jan-20 13:33N 39°14' W 075°19'8 8.0
2017-Jan-20 12:33N 39°20' W 075°25'7 6.9
2017-Jan-20 11:33N 39°25' W 075°31'5 5.4
2017-Jan-20 10:33N 39°30' W 075°33'5 4.9
2017-Jan-20 09:33N 39°35' W 075°34'4 3.8
2017-Jan-20 08:33N 39°39' W 075°33'4 4.3
2017-Jan-20 07:33N 39°43' W 075°30'5 5.2
2017-Jan-20 06:33N 39°47' W 075°27'5 4.8
2017-Jan-20 05:33N 39°50' W 075°22'0 0.3
2017-Jan-20 04:33N 39°50' W 075°22'0 0.0
2017-Jan-20 03:33N 39°50' W 075°22'0 0.0
2017-Jan-20 02:33N 39°50' W 075°22'8 8.1
2017-Jan-20 01:33N 39°53' W 075°12'1 0.9
2017-Jan-20 00:33N 39°52' W 075°13'6 6.4
2017-Jan-19 23:33N 39°51' W 075°21'5 4.6
2017-Jan-19 22:33N 39°48' W 075°26'8 7.9
2017-Jan-19 21:33N 39°41' W 075°31'8 8.3
2017-Jan-19 20:33N 39°33' W 075°33'9 8.9
2017-Jan-19 19:33N 39°24' W 075°30'1010.0
2017-Jan-19 18:33N 39°17' W 075°21'10 9.8
2017-Jan-19 17:33N 39°09' W 075°14'11 1.1
2017-Jan-19 07:32N 38°59' W 075°08'6 6.1
2017-Jan-19 06:33N 39°04' W 075°11'6 5.7
2017-Jan-19 05:33N 39°09' W 075°15'6 5.6
2017-Jan-19 04:33N 39°14' W 075°18'6 6.3
2017-Jan-19 03:33N 39°19' W 075°23'8 7.8
2017-Jan-19 02:33N 39°24' W 075°30'7 6.9
2017-Jan-19 01:33N 39°31' W 075°33'8 7.6
2017-Jan-19 00:33N 39°38' W 075°34'7 7.1
2017-Jan-18 23:33N 39°45' W 075°30'6 6.2
2017-Jan-18 22:33N 39°49' W 075°24'2 2.2
2017-Jan-18 21:33N 39°50' W 075°22'0 0.4
2017-Jan-18 20:34N 39°50' W 075°22'0 0.0
2017-Jan-18 19:33N 39°50' W 075°22'0 0.0
2017-Jan-18 18:33N 39°50' W 075°22'0 0.1
2017-Jan-18 17:33N 39°50' W 075°22'0 0.0
2017-Jan-18 16:33N 39°50' W 075°22'0 0.0
2017-Jan-18 15:33N 39°50' W 075°22'0 0.0
2017-Jan-18 14:33N 39°50' W 075°22'0 0.0
2017-Jan-18 13:33N 39°50' W 075°22'0 0.0
2017-Jan-18 12:33N 39°50' W 075°22'0 0.0
2017-Jan-18 11:33N 39°50' W 075°22'0 0.1
2017-Jan-18 10:33N 39°50' W 075°22'0 0.0
2017-Jan-18 09:33N 39°50' W 075°22'0 0.0
2017-Jan-18 08:34N 39°50' W 075°22'0 0.0
2017-Jan-18 07:33N 39°50' W 075°22'0 0.0
2017-Jan-18 06:33N 39°50' W 075°22'0 0.1
2017-Jan-18 05:33N 39°50' W 075°22'0 0.0
2017-Jan-18 04:33N 39°50' W 075°22'0 0.0
2017-Jan-18 03:33N 39°50' W 075°22'0 0.0
2017-Jan-18 02:33N 39°50' W 075°22'0 0.0
2017-Jan-18 01:33N 39°50' W 075°22'0 0.0
2017-Jan-18 00:33N 39°50' W 075°22'0 0.0
2017-Jan-17 23:33N 39°50' W 075°22'0 0.0
2017-Jan-17 22:33N 39°50' W 075°22'0 0.1
2017-Jan-17 21:33N 39°50' W 075°22'0 0.0
2017-Jan-17 20:33N 39°50' W 075°22'0 0.0
2017-Jan-17 19:33N 39°50' W 075°22'0 0.0
2017-Jan-17 18:33N 39°50' W 075°22'3 3.2
2017-Jan-17 17:33N 39°51' W 075°18'5 5.4
2017-Jan-17 16:33N 39°54' W 075°12'0 0.0
2017-Jan-17 15:33N 39°54' W 075°12'0 0.0
2017-Jan-17 14:33N 39°54' W 075°12'0 0.0
2017-Jan-17 13:33N 39°54' W 075°12'1 0.7
2017-Jan-17 12:33N 39°54' W 075°12'0 0.0
2017-Jan-17 11:33N 39°54' W 075°12'0 0.5
2017-Jan-17 10:33N 39°54' W 075°12'0 0.0
2017-Jan-17 09:33N 39°54' W 075°12'0 0.0
2017-Jan-17 08:33N 39°54' W 075°12'5 4.6
2017-Jan-17 07:33N 39°51' W 075°17'4 3.9
2017-Jan-17 06:33N 39°50' W 075°22'5 4.8
2017-Jan-17 05:33N 39°47' W 075°27'1010.1
2017-Jan-17 04:33N 39°39' W 075°33'10 9.8
2017-Jan-17 03:33N 39°29' W 075°34'9 8.8
2017-Jan-17 02:33N 39°22' W 075°27'8 8.4
2017-Jan-17 01:33N 39°15' W 075°20'9 8.5
2017-Jan-17 00:32N 39°08' W 075°14'8 8.5
2017-Jan-16 23:33N 39°01' W 075°09'9 8.5
2017-Jan-16 22:32N 38°53' W 075°04'8 6.9
2017-Jan-16 21:21N 38°49' W 074°55'8 8.6
2017-Jan-16 20:24N 38°54' W 074°47'6 6.8
2017-Jan-16 19:28N 38°58' W 074°41'6 6.4
2017-Jan-16 18:29N 38°53' W 074°46'8 7.5
2017-Jan-16 17:23N 38°49' W 074°55'11 5.8
2017-Jan-16 15:24N 38°56' W 075°06'5 5.9
2017-Jan-16 14:32N 39°01' W 075°09'6 6.1
2017-Jan-16 13:33N 39°06' W 075°12'7 7.2
2017-Jan-16 12:33N 39°12' W 075°17'9 9.4
2017-Jan-16 11:33N 39°19' W 075°25'9 9.3
2017-Jan-16 10:33N 39°26' W 075°33'8 8.1
2017-Jan-16 09:33N 39°35' W 075°33'7 6.6
2017-Jan-16 08:33N 39°41' W 075°31'6 6.1
2017-Jan-16 07:33N 39°47' W 075°28'5 5.3
2017-Jan-16 06:33N 39°50' W 075°22'1 0.6
2017-Jan-16 05:33N 39°50' W 075°22'0 0.0
2017-Jan-16 04:33N 39°50' W 075°22'0 0.1
2017-Jan-16 03:33N 39°50' W 075°22'0 0.0
2017-Jan-16 02:33N 39°50' W 075°22'0 0.0
2017-Jan-16 01:33N 39°50' W 075°22'0 0.0
2017-Jan-16 00:33N 39°50' W 075°22'0 0.0
2017-Jan-15 23:33N 39°50' W 075°22'0 0.0
2017-Jan-15 22:33N 39°50' W 075°22'0 0.0
2017-Jan-15 21:33N 39°50' W 075°22'0 0.1
2017-Jan-15 20:33N 39°50' W 075°22'0 0.0
2017-Jan-15 19:33N 39°50' W 075°22'0 0.0
2017-Jan-15 18:33N 39°50' W 075°22'0 0.0
2017-Jan-15 17:33N 39°50' W 075°22'0 0.0
2017-Jan-15 16:34N 39°50' W 075°22'0 0.0
2017-Jan-15 15:33N 39°50' W 075°22'0 0.1
2017-Jan-15 14:33N 39°50' W 075°22'0 0.0
2017-Jan-15 13:33N 39°50' W 075°22'0 0.0
2017-Jan-15 12:33N 39°50' W 075°22'0 0.0
2017-Jan-15 11:33N 39°50' W 075°22'1 0.7
2017-Jan-15 10:33N 39°50' W 075°21'2 2.0
2017-Jan-15 09:33N 39°49' W 075°23'0 0.0
2017-Jan-15 08:33N 39°49' W 075°23'0 0.0
2017-Jan-15 07:33N 39°49' W 075°23'0 0.0
2017-Jan-15 06:33N 39°49' W 075°23'1 1.4
2017-Jan-15 05:33N 39°50' W 075°22'0 0.0
2017-Jan-15 04:33N 39°50' W 075°22'0 0.0
2017-Jan-15 03:33N 39°50' W 075°22'3 2.8
2017-Jan-15 02:33N 39°48' W 075°25'7 7.3
2017-Jan-15 01:33N 39°43' W 075°31'7 6.9
2017-Jan-15 00:33N 39°36' W 075°34'7 6.6
2017-Jan-14 23:33N 39°30' W 075°33'6 5.9
2017-Jan-14 22:33N 39°24' W 075°30'6 6.4
2017-Jan-14 21:33N 39°20' W 075°25'7 6.6
2017-Jan-14 20:33N 39°15' W 075°19'7 7.1
2017-Jan-14 19:33N 39°09' W 075°14'7 7.3
2017-Jan-14 18:33N 39°02' W 075°10'21 5.2
2017-Jan-14 14:26N 38°58' W 074°43'20 3.3
2017-Jan-14 08:26N 38°60' W 075°08'7 8.1
2017-Jan-14 07:33N 39°06' W 075°12'8 8.1
2017-Jan-14 06:33N 39°13' W 075°18'7 7.1
2017-Jan-14 05:33N 39°18' W 075°23'6 5.9
2017-Jan-14 04:33N 39°23' W 075°28'5 5.3
2017-Jan-14 03:33N 39°27' W 075°33'22 5.4
2017-Jan-13 23:34N 39°48' W 075°26'4 4.2
2017-Jan-13 22:33N 39°50' W 075°22'2 1.7
2017-Jan-13 21:33N 39°49' W 075°23'0 0.2
2017-Jan-13 20:33N 39°49' W 075°23'2 1.9
2017-Jan-13 19:33N 39°48' W 075°25'8 8.1
2017-Jan-13 18:33N 39°41' W 075°31'9 8.6
2017-Jan-13 17:33N 39°33' W 075°33'9 9.0
2017-Jan-13 16:33N 39°24' W 075°30'1010.4
2017-Jan-13 15:33N 39°16' W 075°20'3110.2
2017-Jan-13 12:28N 38°49' W 075°01'9 9.0
2017-Jan-13 11:31N 38°50' W 074°50'10 7.3
2017-Jan-13 10:08N 38°58' W 074°42'24 4.9
2017-Jan-13 05:16N 39°05' W 075°11'6 8.6
2017-Jan-13 04:33N 39°10' W 075°16'7 7.3
2017-Jan-13 03:33N 39°16' W 075°21'6 5.9
2017-Jan-13 02:33N 39°21' W 075°26'6 5.5
2017-Jan-13 01:33N 39°25' W 075°31'6 6.1
2017-Jan-13 00:33N 39°31' W 075°33'8 7.5
2017-Jan-12 23:33N 39°38' W 075°34'8 7.9
2017-Jan-12 22:33N 39°45' W 075°29'6 6.2
2017-Jan-12 21:33N 39°49' W 075°23'5 4.7
2017-Jan-12 20:33N 39°51' W 075°18'5 5.3
2017-Jan-12 19:33N 39°54' W 075°12'0 0.0
2017-Jan-12 18:33N 39°54' W 075°12'0 0.0
2017-Jan-12 17:33N 39°54' W 075°12'0 0.0
2017-Jan-12 16:33N 39°54' W 075°12'0 0.0
2017-Jan-12 15:33N 39°54' W 075°12'0 0.0
2017-Jan-12 14:33N 39°54' W 075°12'0 0.0
2017-Jan-12 13:33N 39°54' W 075°12'0 0.0
2017-Jan-12 12:33N 39°54' W 075°12'0 0.0
2017-Jan-12 11:33N 39°54' W 075°12'0 0.0
2017-Jan-12 10:33N 39°54' W 075°12'0 0.0
2017-Jan-12 09:33N 39°54' W 075°12'0 0.0
2017-Jan-12 08:33N 39°54' W 075°12'0 0.0
2017-Jan-12 07:33N 39°54' W 075°12'0 0.0
2017-Jan-12 06:33N 39°54' W 075°12'0 0.1
2017-Jan-12 05:33N 39°54' W 075°12'1010.0
2017-Jan-12 04:34N 39°49' W 075°23'2 1.5
2017-Jan-12 03:33N 39°50' W 075°22'6 6.1
2017-Jan-12 02:33N 39°46' W 075°28'1010.4
2017-Jan-12 01:33N 39°37' W 075°35'1010.1
2017-Jan-12 00:33N 39°27' W 075°33'10 9.9
2017-Jan-11 23:33N 39°20' W 075°25'9 8.7
2017-Jan-11 22:33N 39°13' W 075°18'10 9.6
2017-Jan-11 21:33N 39°05' W 075°11'10 9.5
2017-Jan-11 20:33N 38°56' W 075°06'15 6.2
2017-Jan-11 18:04N 38°54' W 074°47'5 7.3
2017-Jan-11 17:21N 38°58' W 074°42'6 5.5
2017-Jan-11 16:18N 38°53' W 074°46'22 5.3
2017-Jan-11 12:05N 39°04' W 075°11'3 5.9
2017-Jan-11 11:33N 39°07' W 075°13'6 5.6
2017-Jan-11 10:33N 39°11' W 075°17'6 6.3
2017-Jan-11 09:33N 39°17' W 075°21'8 8.0
2017-Jan-11 08:33N 39°23' W 075°28'8 8.5
2017-Jan-11 07:33N 39°30' W 075°33'8 8.1
2017-Jan-11 06:33N 39°38' W 075°34'8 7.6
2017-Jan-11 05:33N 39°45' W 075°30'6 5.7
2017-Jan-11 04:33N 39°49' W 075°24'2 1.5
2017-Jan-11 03:33N 39°50' W 075°23'0 0.2
2017-Jan-11 02:33N 39°49' W 075°23'7 6.7
2017-Jan-11 01:33N 39°45' W 075°29'9 9.2
2017-Jan-11 00:33N 39°37' W 075°35'9 9.1
2017-Jan-10 23:33N 39°28' W 075°34'9 9.3
2017-Jan-10 22:33N 39°21' W 075°26'10 9.5
2017-Jan-10 21:33N 39°13' W 075°18'10 9.5
2017-Jan-10 20:30N 39°05' W 075°11'  

Dump ship's entire track history